createdAt,value
2023-02-13T00:00:51.923Z,102485.13
2023-02-13T00:03:19.028Z,102490.75
2023-02-13T00:05:45.935Z,102481.91
2023-02-13T00:08:12.799Z,102483.84
2023-02-13T00:10:40.380Z,102480.25
2023-02-13T00:13:07.161Z,102473.25
2023-02-13T00:15:34.371Z,102468.63
2023-02-13T00:18:02.945Z,102467.00
2023-02-13T00:20:29.776Z,102471.22
2023-02-13T00:22:56.586Z,102474.03
2023-02-13T00:25:23.352Z,102475.84
2023-02-13T00:27:52.412Z,102474.13
2023-02-13T00:30:19.309Z,102482.09
2023-02-13T00:32:46.574Z,102473.25
2023-02-13T00:35:13.417Z,102470.47
2023-02-13T00:37:40.190Z,102477.78
2023-02-13T00:40:08.076Z,102467.97
2023-02-13T00:42:34.880Z,102474.22
2023-02-13T00:45:01.640Z,102469.25
2023-02-13T00:47:28.464Z,102468.06
2023-02-13T00:49:55.270Z,102468.28
2023-02-13T00:52:22.066Z,102465.38
2023-02-13T00:54:48.913Z,102456.34
2023-02-13T00:57:15.708Z,102455.34
2023-02-13T00:59:42.523Z,102446.50
2023-02-13T01:02:09.330Z,102447.50
2023-02-13T01:04:36.164Z,102456.75
2023-02-13T01:07:02.949Z,102456.84
2023-02-13T01:09:29.763Z,102445.84
2023-02-13T01:11:56.569Z,102450.19
2023-02-13T01:14:23.454Z,102446.50
2023-02-13T01:16:50.234Z,102439.59
2023-02-13T01:19:17.447Z,102437.00
2023-02-13T01:21:44.767Z,102441.34
2023-02-13T01:24:11.924Z,102434.03
2023-02-13T01:26:39.637Z,102428.63
2023-02-13T01:29:06.779Z,102421.91
2023-02-13T01:31:34.165Z,102427.97
2023-02-13T01:34:01.181Z,102432.28
2023-02-13T01:36:28.163Z,102429.69
2023-02-13T01:38:58.460Z,102428.63
2023-02-13T01:41:27.363Z,102436.72
2023-02-13T01:43:58.911Z,102427.97
2023-02-13T01:46:37.841Z,102431.53
2023-02-13T01:49:33.986Z,102430.56
2023-02-13T01:52:00.853Z,102434.13
2023-02-13T01:54:31.489Z,102427.75
2023-02-13T01:57:22.510Z,102433.34
2023-02-13T02:00:08.120Z,102428.63
2023-02-13T02:02:40.746Z,102430.66
2023-02-13T02:05:09.322Z,102429.81
2023-02-13T02:07:38.357Z,102445.00
2023-02-13T02:10:10.716Z,102429.91
2023-02-13T02:13:07.160Z,102433.47
2023-02-13T02:15:34.202Z,102439.03
2023-02-13T02:18:01.022Z,102434.41
2023-02-13T02:21:09.984Z,102433.88
2023-02-13T02:24:27.667Z,102433.97
2023-02-13T02:27:25.976Z,102427.59
2023-02-13T02:30:17.303Z,102425.56
2023-02-13T02:33:26.731Z,102426.56
2023-02-13T02:36:12.479Z,102418.47
2023-02-13T02:39:04.093Z,102413.84
2023-02-13T02:42:23.566Z,102412.16
2023-02-13T02:45:39.409Z,102413.09
2023-02-13T02:48:36.948Z,102411.16
2023-02-13T02:51:29.764Z,102415.03
2023-02-13T02:54:41.663Z,102412.41
2023-02-13T02:57:16.647Z,102412.41
2023-02-13T03:00:02.840Z,102400.97
2023-02-13T03:02:51.562Z,102401.44
2023-02-13T03:05:50.931Z,102391.94
2023-02-13T03:08:41.374Z,102393.66
2023-02-13T03:11:28.149Z,102400.56
2023-02-13T03:13:56.049Z,102400.47
2023-02-13T03:16:44.403Z,102397.78
2023-02-13T03:20:05.781Z,102389.59
2023-02-13T03:22:57.650Z,102388.28
2023-02-13T03:25:41.662Z,102389.03
2023-02-13T03:29:26.335Z,102394.66
2023-02-13T03:32:16.146Z,102389.25
2023-02-13T03:35:18.480Z,102384.41
2023-02-13T03:37:56.768Z,102384.50
2023-02-13T03:41:05.343Z,102391.53
2023-02-13T03:43:59.243Z,102382.59
2023-02-13T03:46:31.313Z,102383.53
2023-02-13T03:49:18.867Z,102382.69
2023-02-13T03:51:51.811Z,102387.84
2023-02-13T03:54:44.041Z,102388.50
2023-02-13T03:57:37.496Z,102386.44
2023-02-13T04:00:11.905Z,102373.84
2023-02-13T04:02:50.341Z,102379.00
2023-02-13T04:05:24.845Z,102373.63
2023-02-13T04:07:51.781Z,102379.00
2023-02-13T04:10:20.540Z,102380.94
2023-02-13T04:13:15.373Z,102380.66
2023-02-13T04:16:06.692Z,102375.38
2023-02-13T04:18:34.877Z,102381.41
2023-02-13T04:21:05.211Z,102377.84
2023-02-13T04:23:32.179Z,102375.16
2023-02-13T04:26:03.277Z,102371.69
2023-02-13T04:28:30.369Z,102375.16
2023-02-13T04:30:58.857Z,102379.78
2023-02-13T04:33:26.014Z,102376.88
2023-02-13T04:35:53.142Z,102371.50
2023-02-13T04:38:19.901Z,102366.00
2023-02-13T04:40:46.690Z,102366.31
2023-02-13T04:43:13.611Z,102368.16
2023-02-13T04:45:40.481Z,102363.94
2023-02-13T04:48:07.335Z,102367.94
2023-02-13T04:50:34.109Z,102359.97
2023-02-13T04:53:00.899Z,102370.66
2023-02-13T04:55:28.613Z,102369.66
2023-02-13T04:57:56.381Z,102367.28
2023-02-13T05:00:25.993Z,102368.03
2023-02-13T05:02:54.070Z,102373.44
2023-02-13T05:05:21.633Z,102370.66
2023-02-13T05:07:48.509Z,102376.88
2023-02-13T05:10:15.383Z,102379.78
2023-02-13T05:12:42.175Z,102380.94
2023-02-13T05:15:09.784Z,102383.22
2023-02-13T05:17:36.580Z,102380.66
2023-02-13T05:20:03.868Z,102372.59
2023-02-13T05:22:49.291Z,102373.44
2023-02-13T05:25:16.274Z,102361.34
2023-02-13T05:27:43.020Z,102367.38
2023-02-13T05:30:10.701Z,102373.84
2023-02-13T05:32:37.815Z,102362.00
2023-02-13T05:35:06.027Z,102360.06
2023-02-13T05:37:32.923Z,102364.78
2023-02-13T05:39:59.871Z,102364.78
2023-02-13T05:42:26.870Z,102357.38
2023-02-13T05:44:53.641Z,102360.06
2023-02-13T05:47:20.456Z,102358.34
2023-02-13T05:49:47.225Z,102363.28
2023-02-13T05:52:13.999Z,102353.81
2023-02-13T05:54:41.215Z,102353.06
2023-02-13T05:57:08.150Z,102357.47
2023-02-13T05:59:34.934Z,102354.25
2023-02-13T06:02:01.764Z,102362.09
2023-02-13T06:04:30.454Z,102361.16
2023-02-13T06:06:57.615Z,102359.31
2023-02-13T06:09:24.452Z,102364.78
2023-02-13T06:11:51.288Z,102363.94
2023-02-13T06:14:18.077Z,102366.63
2023-02-13T06:16:44.899Z,102360.50
2023-02-13T06:19:11.672Z,102356.72
2023-02-13T06:21:39.076Z,102365.66
2023-02-13T06:24:09.711Z,102367.81
2023-02-13T06:26:36.560Z,102363.28
2023-02-13T06:29:05.107Z,102356.81
2023-02-13T06:31:32.544Z,102356.19
2023-02-13T06:33:59.409Z,102350.22
2023-02-13T06:36:26.228Z,102354.25
2023-02-13T06:38:53.040Z,102354.44
2023-02-13T06:41:20.352Z,102347.72
2023-02-13T06:43:47.180Z,102351.00
2023-02-13T06:46:13.995Z,102349.25
2023-02-13T06:48:40.840Z,102347.72
2023-02-13T06:51:07.717Z,102361.09
2023-02-13T06:53:34.526Z,102346.69
2023-02-13T06:56:06.643Z,102350.31
2023-02-13T06:58:34.421Z,102335.25
2023-02-13T07:01:01.337Z,102333.31
2023-02-13T07:03:28.526Z,102333.31
2023-02-13T07:05:55.410Z,102335.03
2023-02-13T07:08:22.662Z,102330.06
2023-02-13T07:10:49.954Z,102336.09
2023-02-13T07:13:16.858Z,102333.31
2023-02-13T07:15:43.783Z,102329.72
2023-02-13T07:18:10.824Z,102320.59
2023-02-13T07:20:37.685Z,102325.25
2023-02-13T07:23:07.041Z,102321.66
2023-02-13T07:25:34.288Z,102327.94
2023-02-13T07:28:03.660Z,102327.28
2023-02-13T07:30:32.479Z,102338.91
2023-02-13T07:33:01.720Z,102336.19
2023-02-13T07:35:28.735Z,102346.13
2023-02-13T07:37:56.203Z,102344.28
2023-02-13T07:40:23.378Z,102345.13
2023-02-13T07:42:50.190Z,102350.31
2023-02-13T07:45:17.129Z,102346.97
2023-02-13T07:47:44.357Z,102355.25
2023-02-13T07:50:12.639Z,102350.66
2023-02-13T07:52:39.541Z,102365.06
2023-02-13T07:55:06.983Z,102360.63
2023-02-13T07:57:34.623Z,102365.06
2023-02-13T08:00:01.919Z,102351.28
2023-02-13T08:02:28.854Z,102359.34
2023-02-13T08:04:56.043Z,102361.50
2023-02-13T08:07:22.895Z,102362.56
2023-02-13T08:10:08.344Z,102349.00
2023-02-13T08:12:36.728Z,102343.44
2023-02-13T08:15:04.679Z,102354.19
2023-02-13T08:17:31.611Z,102352.34
2023-02-13T08:19:58.561Z,102346.97
2023-02-13T08:22:25.781Z,102355.16
2023-02-13T08:24:52.927Z,102359.69
2023-02-13T08:27:20.347Z,102360.25
2023-02-13T08:29:49.448Z,102364.13
2023-02-13T08:32:16.581Z,102361.28
2023-02-13T08:34:43.488Z,102361.97
2023-02-13T08:37:10.288Z,102367.91
2023-02-13T08:39:37.262Z,102361.66
2023-02-13T08:42:04.208Z,102357.56
2023-02-13T08:44:31.055Z,102358.09
2023-02-13T08:46:58.044Z,102359.63
2023-02-13T08:49:25.050Z,102363.84
2023-02-13T08:51:51.820Z,102358.34
2023-02-13T08:54:18.791Z,102355.34
2023-02-13T08:56:45.790Z,102361.47
2023-02-13T08:59:12.562Z,102353.41
2023-02-13T09:01:39.526Z,102357.50
2023-02-13T09:04:06.429Z,102352.97
2023-02-13T09:06:33.660Z,102355.38
2023-02-13T09:09:00.445Z,102358.81
2023-02-13T09:11:27.265Z,102353.34
2023-02-13T09:13:54.453Z,102350.22
2023-02-13T09:16:21.830Z,102352.16
2023-02-13T09:18:50.221Z,102344.06
2023-02-13T09:21:18.406Z,102338.34
2023-02-13T09:23:46.067Z,102338.66
2023-02-13T09:26:16.452Z,102344.38
2023-02-13T09:28:43.949Z,102341.81
2023-02-13T09:31:17.733Z,102345.81
2023-02-13T09:33:46.391Z,102346.25
2023-02-13T09:36:16.620Z,102348.19
2023-02-13T09:38:44.384Z,102351.22
2023-02-13T09:41:21.566Z,102348.50
2023-02-13T09:43:52.874Z,102348.50
2023-02-13T09:46:40.670Z,102351.22
2023-02-13T09:49:17.510Z,102359.31
2023-02-13T09:51:47.455Z,102353.03
2023-02-13T09:54:19.208Z,102352.47
2023-02-13T09:57:00.617Z,102357.00
2023-02-13T09:59:41.170Z,102345.28
2023-02-13T10:02:38.774Z,102349.78
2023-02-13T10:05:26.952Z,102345.91
2023-02-13T10:08:08.500Z,102341.69
2023-02-13T10:10:50.534Z,102334.59
2023-02-13T10:13:48.455Z,102333.50
2023-02-13T10:16:29.440Z,102332.63
2023-02-13T10:19:06.867Z,102330.13
2023-02-13T10:21:42.908Z,102328.84
2023-02-13T10:24:40.427Z,102335.50
2023-02-13T10:27:34.946Z,102326.44
2023-02-13T10:30:26.526Z,102332.03
2023-02-13T10:33:20.872Z,102323.59
2023-02-13T10:36:03.857Z,102329.44
2023-02-13T10:38:36.003Z,102337.38
2023-02-13T10:41:36.278Z,102331.88
2023-02-13T10:44:42.735Z,102330.56
2023-02-13T10:47:24.456Z,102325.47
2023-02-13T10:50:40.145Z,102324.38
2023-02-13T10:53:24.991Z,102323.06
2023-02-13T10:56:03.761Z,102328.22
2023-02-13T10:59:15.949Z,102333.19
2023-02-13T11:02:02.729Z,102327.53
2023-02-13T11:04:30.308Z,102312.53
2023-02-13T11:07:04.399Z,102315.69
2023-02-13T11:09:39.002Z,102323.53
2023-02-13T11:12:31.918Z,102318.81
2023-02-13T11:15:08.864Z,102319.03
2023-02-13T11:17:40.370Z,102319.03
2023-02-13T11:20:27.810Z,102325.16
2023-02-13T11:22:56.100Z,102326.78
2023-02-13T11:25:32.025Z,102324.41
2023-02-13T11:28:17.985Z,102323.09
2023-02-13T11:30:44.988Z,102318.56
2023-02-13T11:33:17.756Z,102318.56
2023-02-13T11:35:46.231Z,102315.28
2023-02-13T11:38:15.976Z,102318.50
2023-02-13T11:40:47.944Z,102307.50
2023-02-13T11:43:29.325Z,102306.59
2023-02-13T11:46:22.349Z,102290.81
2023-02-13T11:49:07.925Z,102291.44
2023-02-13T11:51:47.373Z,102287.41
2023-02-13T11:55:00.265Z,102290.13
2023-02-13T11:57:34.196Z,102280.81
2023-02-13T12:00:28.933Z,102283.38
2023-02-13T12:02:55.836Z,102283.38
2023-02-13T12:05:28.453Z,102275.75
2023-02-13T12:08:02.180Z,102276.13
2023-02-13T12:10:33.835Z,102275.19
2023-02-13T12:13:13.988Z,102279.69
2023-02-13T12:15:41.848Z,102273.31
2023-02-13T12:18:40.159Z,102267.94
2023-02-13T12:21:56.256Z,102271.47
2023-02-13T12:24:44.249Z,102275.81
2023-02-13T12:27:26.267Z,102275.53
2023-02-13T12:30:14.976Z,102268.19
2023-02-13T12:33:16.787Z,102269.19
2023-02-13T12:35:55.452Z,102267.22
2023-02-13T12:38:51.516Z,102261.56
2023-02-13T12:41:44.489Z,102262.56
2023-02-13T12:44:52.858Z,102257.78
2023-02-13T12:47:31.818Z,102255.94
2023-02-13T12:50:39.811Z,102254.06
2023-02-13T12:53:24.862Z,102246.34
2023-02-13T12:56:09.057Z,102238.75
2023-02-13T12:58:51.375Z,102239.59
2023-02-13T13:01:46.542Z,102235.06
2023-02-13T13:04:50.949Z,102241.97
2023-02-13T13:08:04.557Z,102240.25
2023-02-13T13:11:11.042Z,102246.91
2023-02-13T13:13:54.936Z,102227.84
2023-02-13T13:17:29.576Z,102239.53
2023-02-13T13:20:14.483Z,102229.22
2023-02-13T13:22:53.979Z,102235.13
2023-02-13T13:25:30.984Z,102224.31
2023-02-13T13:28:27.812Z,102224.94
2023-02-13T13:30:55.727Z,102217.56
2023-02-13T13:33:26.388Z,102225.78
2023-02-13T13:36:18.830Z,102217.66
2023-02-13T13:39:22.892Z,102212.25
2023-02-13T13:42:11.925Z,102214.75
2023-02-13T13:44:50.443Z,102205.41
2023-02-13T13:47:35.412Z,102200.22
2023-02-13T13:50:06.220Z,102208.22
2023-02-13T13:52:40.342Z,102198.00
2023-02-13T13:55:48.853Z,102193.59
2023-02-13T13:58:44.124Z,102185.72
2023-02-13T14:01:31.184Z,102182.28
2023-02-13T14:04:32.879Z,102167.94
2023-02-13T14:06:59.607Z,102169.63
2023-02-13T14:09:43.852Z,102171.47
2023-02-13T14:12:50.349Z,102162.38
2023-02-13T14:15:39.018Z,102162.38
2023-02-13T14:18:08.246Z,102154.41
2023-02-13T14:20:43.090Z,102164.00
2023-02-13T14:23:53.513Z,102161.28
2023-02-13T14:26:32.090Z,102162.63
2023-02-13T14:29:16.839Z,102159.94
2023-02-13T14:32:01.223Z,102158.94
2023-02-13T14:34:38.664Z,102150.59
2023-02-13T14:37:13.141Z,102154.25
2023-02-13T14:39:42.365Z,102153.16
2023-02-13T14:42:30.283Z,102156.72
2023-02-13T14:45:00.652Z,102159.31
2023-02-13T14:47:32.847Z,102149.34
2023-02-13T14:50:03.892Z,102154.50
2023-02-13T14:52:40.329Z,102151.06
2023-02-13T14:55:45.881Z,102138.28
2023-02-13T14:58:28.214Z,102139.75
2023-02-13T15:01:06.149Z,102136.06
2023-02-13T15:03:38.319Z,102130.66
2023-02-13T15:06:14.905Z,102138.91
2023-02-13T15:08:49.696Z,102145.41
2023-02-13T15:11:43.171Z,102146.28
2023-02-13T15:14:35.643Z,102138.28
2023-02-13T15:17:24.174Z,102127.81
2023-02-13T15:20:05.122Z,102121.31
2023-02-13T15:22:36.374Z,102125.28
2023-02-13T15:25:04.493Z,102130.06
2023-02-13T15:27:39.205Z,102122.06
2023-02-13T15:30:22.525Z,102126.13
2023-02-13T15:32:59.726Z,102130.94
2023-02-13T15:35:38.935Z,102123.06
2023-02-13T15:38:39.273Z,102131.66
2023-02-13T15:41:24.409Z,102123.56
2023-02-13T15:43:56.600Z,102121.84
2023-02-13T15:46:33.927Z,102116.81
2023-02-13T15:49:07.402Z,102123.06
2023-02-13T15:51:35.292Z,102126.03
2023-02-13T15:54:07.326Z,102126.03
2023-02-13T15:56:35.229Z,102121.97
2023-02-13T15:59:03.889Z,102123.94
2023-02-13T16:01:32.311Z,102129.47
2023-02-13T16:04:06.817Z,102125.25
2023-02-13T16:06:35.078Z,102123.53
2023-02-13T16:09:04.586Z,102130.91
2023-02-13T16:11:44.799Z,102120.59
2023-02-13T16:14:21.742Z,102110.63
2023-02-13T16:17:18.057Z,102110.00
2023-02-13T16:19:50.889Z,102104.09
2023-02-13T16:22:38.142Z,102104.59
2023-02-13T16:25:16.767Z,102110.25
2023-02-13T16:28:18.781Z,102111.47
2023-02-13T16:30:51.580Z,102109.25
2023-02-13T16:33:36.361Z,102107.88
2023-02-13T16:36:09.443Z,102114.75
2023-02-13T16:38:46.487Z,102116.06
2023-02-13T16:41:19.376Z,102108.47
2023-02-13T16:43:53.967Z,102110.66
2023-02-13T16:46:26.949Z,102104.88
2023-02-13T16:48:56.893Z,102103.41
2023-02-13T16:51:42.825Z,102102.03
2023-02-13T16:54:12.432Z,102109.59
2023-02-13T16:56:49.933Z,102113.53
2023-02-13T16:59:42.064Z,102112.16
2023-02-13T17:02:12.970Z,102107.22
2023-02-13T17:04:39.949Z,102113.81
2023-02-13T17:07:14.048Z,102110.72
2023-02-13T17:09:40.982Z,102106.66
2023-02-13T17:12:18.254Z,102113.56
2023-02-13T17:14:45.450Z,102110.38
2023-02-13T17:17:15.957Z,102115.47
2023-02-13T17:19:43.052Z,102114.94
2023-02-13T17:22:40.170Z,102120.16
2023-02-13T17:25:17.758Z,102118.75
2023-02-13T17:27:45.285Z,102121.81
2023-02-13T17:30:24.951Z,102123.00
2023-02-13T17:32:59.569Z,102118.91
2023-02-13T17:35:26.787Z,102119.97
2023-02-13T17:37:54.024Z,102124.72
2023-02-13T17:40:29.889Z,102124.13
2023-02-13T17:42:58.571Z,102127.13
2023-02-13T17:45:29.043Z,102120.22
2023-02-13T17:47:57.964Z,102128.63
2023-02-13T17:50:27.594Z,102135.09
2023-02-13T17:52:55.076Z,102139.19
2023-02-13T17:55:29.140Z,102131.56
2023-02-13T17:57:57.818Z,102132.75
2023-02-13T18:00:29.280Z,102122.41
2023-02-13T18:02:59.501Z,102124.66
2023-02-13T18:05:28.698Z,102128.63
2023-02-13T18:07:56.096Z,102131.66
2023-02-13T18:10:29.331Z,102134.63
2023-02-13T18:13:04.069Z,102131.59
2023-02-13T18:15:40.267Z,102135.47
2023-02-13T18:18:07.914Z,102124.16
2023-02-13T18:20:35.011Z,102131.59
2023-02-13T18:23:02.036Z,102133.50
2023-02-13T18:25:29.829Z,102137.38
2023-02-13T18:27:56.642Z,102136.72
2023-02-13T18:30:23.799Z,102143.19
2023-02-13T18:32:56.162Z,102157.69
2023-02-13T18:35:23.458Z,102156.16
2023-02-13T18:37:51.230Z,102152.16
2023-02-13T18:40:18.519Z,102153.25
2023-02-13T18:42:45.436Z,102158.81
2023-02-13T18:45:12.676Z,102146.63
2023-02-13T18:47:39.531Z,102154.03
2023-02-13T18:50:07.677Z,102147.38
2023-02-13T18:52:35.327Z,102151.09
2023-02-13T18:55:02.743Z,102147.00
2023-02-13T18:57:29.672Z,102142.97
2023-02-13T18:59:56.603Z,102144.03
2023-02-13T19:02:23.800Z,102140.78
2023-02-13T19:04:50.829Z,102136.50
2023-02-13T19:07:17.628Z,102134.97
2023-02-13T19:09:44.663Z,102133.22
2023-02-13T19:12:11.738Z,102138.81
2023-02-13T19:14:39.865Z,102141.50
2023-02-13T19:17:08.658Z,102137.16
2023-02-13T19:19:35.544Z,102131.78
2023-02-13T19:22:03.521Z,102130.38
2023-02-13T19:24:30.616Z,102131.44
2023-02-13T19:26:57.391Z,102126.16
2023-02-13T19:29:24.313Z,102129.06
2023-02-13T19:31:51.117Z,102130.88
2023-02-13T19:34:18.242Z,102121.09
2023-02-13T19:36:45.035Z,102121.28
2023-02-13T19:39:12.032Z,102115.91
2023-02-13T19:41:41.069Z,102117.84
2023-02-13T19:44:09.347Z,102104.50
2023-02-13T19:46:38.254Z,102116.31
2023-02-13T19:49:06.308Z,102104.81
2023-02-13T19:51:35.070Z,102100.59
2023-02-13T19:54:05.895Z,102106.06
2023-02-13T19:56:36.227Z,102097.34
2023-02-13T19:59:04.349Z,102093.22
2023-02-13T20:01:31.233Z,102094.16
2023-02-13T20:03:58.585Z,102089.84
2023-02-13T20:06:35.829Z,102088.44
2023-02-13T20:09:10.441Z,102083.81
2023-02-13T20:11:37.408Z,102094.47
2023-02-13T20:14:05.909Z,102090.81
2023-02-13T20:16:35.576Z,102089.84
2023-02-13T20:19:07.160Z,102088.91
2023-02-13T20:21:35.408Z,102092.38
2023-02-13T20:24:03.306Z,102093.22
2023-02-13T20:26:30.441Z,102097.53
2023-02-13T20:28:59.611Z,102094.06
2023-02-13T20:31:31.234Z,102098.41
2023-02-13T20:33:58.672Z,102093.88
2023-02-13T20:36:29.268Z,102092.16
2023-02-13T20:38:59.798Z,102090.63
2023-02-13T20:41:30.435Z,102087.19
2023-02-13T20:44:04.645Z,102088.25
2023-02-13T20:46:38.208Z,102083.91
2023-02-13T20:49:05.791Z,102088.50
2023-02-13T20:51:32.764Z,102088.50
2023-02-13T20:54:00.486Z,102087.75
2023-02-13T20:56:28.564Z,102083.38
2023-02-13T20:59:00.635Z,102084.31
2023-02-13T21:01:35.506Z,102079.88
2023-02-13T21:04:04.052Z,102089.69
2023-02-13T21:06:37.142Z,102088.81
2023-02-13T21:09:08.215Z,102086.03
2023-02-13T21:11:39.043Z,102082.47
2023-02-13T21:14:07.148Z,102094.19
2023-02-13T21:16:39.941Z,102084.31
2023-02-13T21:19:17.858Z,102087.94
2023-02-13T21:21:47.399Z,102090.75
2023-02-13T21:24:24.540Z,102085.66
2023-02-13T21:26:57.976Z,102082.97
2023-02-13T21:29:25.969Z,102092.16
2023-02-13T21:31:53.574Z,102079.91
2023-02-13T21:34:22.922Z,102086.97
2023-02-13T21:36:49.939Z,102083.53
2023-02-13T21:39:16.957Z,102085.38
2023-02-13T21:41:45.472Z,102078.38
2023-02-13T21:44:17.025Z,102082.00
2023-02-13T21:46:45.533Z,102082.22
2023-02-13T21:49:16.560Z,102084.00
2023-02-13T21:51:43.915Z,102082.31
2023-02-13T21:54:11.777Z,102072.50
2023-02-13T21:56:40.767Z,102074.25
2023-02-13T21:59:08.304Z,102077.03
2023-02-13T22:01:38.751Z,102077.22
2023-02-13T22:04:08.752Z,102068.59
2023-02-13T22:06:39.177Z,102077.69
2023-02-13T22:09:10.294Z,102085.06
2023-02-13T22:11:38.511Z,102074.72
2023-02-13T22:14:08.629Z,102077.78
2023-02-13T22:16:38.831Z,102078.72
2023-02-13T22:19:07.432Z,102088.66
2023-02-13T22:21:35.705Z,102081.69
2023-02-13T22:24:03.491Z,102079.19
2023-02-13T22:26:39.366Z,102081.09
2023-02-13T22:29:11.513Z,102079.28
2023-02-13T22:31:39.185Z,102079.28
2023-02-13T22:34:07.077Z,102082.06
2023-02-13T22:36:39.202Z,102083.94
2023-02-13T22:39:08.267Z,102076.97
2023-02-13T22:41:35.162Z,102075.50
2023-02-13T22:44:01.979Z,102077.50
2023-02-13T22:46:31.843Z,102072.53
2023-02-13T22:48:59.783Z,102071.94
2023-02-13T22:51:31.864Z,102073.06
2023-02-13T22:54:00.099Z,102068.84
2023-02-13T22:56:29.729Z,102072.66
2023-02-13T22:58:57.280Z,102076.50
2023-02-13T23:01:27.060Z,102074.16
2023-02-13T23:03:55.213Z,102079.69
2023-02-13T23:06:22.590Z,102074.59
2023-02-13T23:08:52.889Z,102080.16
2023-02-13T23:11:41.670Z,102086.53
2023-02-13T23:14:10.180Z,102076.94
2023-02-13T23:16:58.853Z,102075.31
2023-02-13T23:19:27.687Z,102067.38
2023-02-13T23:21:54.593Z,102071.88
2023-02-13T23:24:21.714Z,102072.88
2023-02-13T23:26:48.548Z,102071.19
2023-02-13T23:29:15.389Z,102067.72
2023-02-13T23:31:42.362Z,102066.00
2023-02-13T23:34:09.685Z,102073.25
2023-02-13T23:36:36.669Z,102068.06
2023-02-13T23:39:03.596Z,102072.56
2023-02-13T23:41:31.102Z,102064.59
2023-02-13T23:43:57.882Z,102064.81
2023-02-13T23:46:24.742Z,102071.09
2023-02-13T23:48:51.630Z,102063.22
2023-02-13T23:51:18.666Z,102063.41
2023-02-13T23:53:45.822Z,102061.75
2023-02-13T23:56:12.605Z,102065.47
2023-02-13T23:58:39.373Z,102063.00
